sensor_id;sensor_type;location;lat;lon;timestamp;temperature;humidity
4727;DHT22;2377;51.734;8.950;2024-01-15T00:01:22;0.50;85.50
4727;DHT22;2377;51.734;8.950;2024-01-15T00:03:49;0.50;94.30
4727;DHT22;2377;51.734;8.950;2024-01-15T00:06:16;0.40;98.10
4727;DHT22;2377;51.734;8.950;2024-01-15T00:08:43;0.40;93.10
4727;DHT22;2377;51.734;8.950;2024-01-15T00:11:10;0.50;92.10
4727;DHT22;2377;51.734;8.950;2024-01-15T00:13:37;0.40;99.90
4727;DHT22;2377;51.734;8.950;2024-01-15T00:16:06;0.50;86.00
4727;DHT22;2377;51.734;8.950;2024-01-15T00:18:33;0.50;74.70
4727;DHT22;2377;51.734;8.950;2024-01-15T00:21:00;0.50;58.30
4727;DHT22;2377;51.734;8.950;2024-01-15T00:23:27;0.50;73.40
4727;DHT22;2377;51.734;8.950;2024-01-15T00:25:57;0.50;62.10
4727;DHT22;2377;51.734;8.950;2024-01-15T00:28:24;0.50;76.50
4727;DHT22;2377;51.734;8.950;2024-01-15T00:30:51;0.50;69.00
4727;DHT22;2377;51.734;8.950;2024-01-15T00:33:19;0.50;82.60
4727;DHT22;2377;51.734;8.950;2024-01-15T00:35:46;0.50;85.40
4727;DHT22;2377;51.734;8.950;2024-01-15T00:38:13;0.50;75.40
4727;DHT22;2377;51.734;8.950;2024-01-15T00:40:40;0.50;60.50
4727;DHT22;2377;51.734;8.950;2024-01-15T00:43:08;0.50;64.50
4727;DHT22;2377;51.734;8.950;2024-01-15T00:45:35;0.60;54.70
4727;DHT22;2377;51.734;8.950;2024-01-15T00:48:02;0.50;52.40
4727;DHT22;2377;51.734;8.950;2024-01-15T00:50:30;0.50;66.10
4727;DHT22;2377;51.734;8.950;2024-01-15T00:52:58;0.50;73.20
4727;DHT22;2377;51.734;8.950;2024-01-15T00:55:25;0.50;65.50
4727;DHT22;2377;51.734;8.950;2024-01-15T00:57:52;0.50;70.90
4727;DHT22;2377;51.734;8.950;2024-01-15T01:00:19;0.50;69.40
4727;DHT22;2377;51.734;8.950;2024-01-15T01:02:46;0.50;65.20
4727;DHT22;2377;51.734;8.950;2024-01-15T01:05:13;0.50;65.10
4727;DHT22;2377;51.734;8.950;2024-01-15T01:07:42;0.50;58.10
4727;DHT22;2377;51.734;8.950;2024-01-15T01:10:10;0.50;61.70
4727;DHT22;2377;51.734;8.950;2024-01-15T01:12:37;0.60;52.80
4727;DHT22;2377;51.734;8.950;2024-01-15T01:15:05;0.60;28.90
4727;DHT22;2377;51.734;8.950;2024-01-15T01:17:33;0.60;37.60
4727;DHT22;2377;51.734;8.950;2024-01-15T01:20:00;0.60;42.60
4727;DHT22;2377;51.734;8.950;2024-01-15T01:22:30;0.60;39.60
4727;DHT22;2377;51.734;8.950;2024-01-15T01:24:58;0.60;49.20
4727;DHT22;2377;51.734;8.950;2024-01-15T01:27:25;0.60;13.90
4727;DHT22;2377;51.734;8.950;2024-01-15T01:29:53;0.60;13.30
4727;DHT22;2377;51.734;8.950;2024-01-15T01:32:20;0.60;8.80
4727;DHT22;2377;51.734;8.950;2024-01-15T01:34:47;0.60;1.00
4727;DHT22;2377;51.734;8.950;2024-01-15T01:37:14;0.60;1.00
4727;DHT22;2377;51.734;8.950;2024-01-15T01:39:42;0.60;1.00
4727;DHT22;2377;51.734;8.950;2024-01-15T01:42:12;0.60;4.90
4727;DHT22;2377;51.734;8.950;2024-01-15T01:44:39;0.60;1.00
4727;DHT22;2377;51.734;8.950;2024-01-15T01:47:06;0.60;5.70
4727;DHT22;2377;51.734;8.950;2024-01-15T01:49:34;0.60;4.40
4727;DHT22;2377;51.734;8.950;2024-01-15T01:52:03;0.60;1.00
4727;DHT22;2377;51.734;8.950;2024-01-15T01:54:32;0.60;9.90
4727;DHT22;2377;51.734;8.950;2024-01-15T01:57:02;0.60;7.80
4727;DHT22;2377;51.734;8.950;2024-01-15T01:59:32;0.60;1.00
4727;DHT22;2377;51.734;8.950;2024-01-15T02:02:02;0.50;1.00
4727;DHT22;2377;51.734;8.950;2024-01-15T02:04:31;0.60;1.00
4727;DHT22;2377;51.734;8.950;2024-01-15T02:06:59;0.60;1.00
4727;DHT22;2377;51.734;8.950;2024-01-15T02:09:26;0.60;1.00
4727;DHT22;2377;51.734;8.950;2024-01-15T02:11:53;0.50;1.00
4727;DHT22;2377;51.734;8.950;2024-01-15T02:14:21;0.50;1.00
4727;DHT22;2377;51.734;8.950;2024-01-15T02:16:49;0.50;1.00
4727;DHT22;2377;51.734;8.950;2024-01-15T02:19:17;0.50;1.00
4727;DHT22;2377;51.734;8.950;2024-01-15T02:21:44;0.50;1.00
4727;DHT22;2377;51.734;8.950;2024-01-15T02:24:13;0.50;1.60
4727;DHT22;2377;51.734;8.950;2024-01-15T02:26:40;0.50;1.00
4727;DHT22;2377;51.734;8.950;2024-01-15T02:29:07;0.50;1.00
4727;DHT22;2377;51.734;8.950;2024-01-15T02:31:35;0.40;2.00
4727;DHT22;2377;51.734;8.950;2024-01-15T02:34:03;0.30;6.70
4727;DHT22;2377;51.734;8.950;2024-01-15T02:36:30;0.40;7.80
4727;DHT22;2377;51.734;8.950;2024-01-15T02:38:57;0.40;6.70
4727;DHT22;2377;51.734;8.950;2024-01-15T02:41:26;0.40;5.30
4727;DHT22;2377;51.734;8.950;2024-01-15T02:43:53;0.40;11.80
4727;DHT22;2377;51.734;8.950;2024-01-15T02:46:20;0.40;1.00
4727;DHT22;2377;51.734;8.950;2024-01-15T02:48:47;0.40;2.50
4727;DHT22;2377;51.734;8.950;2024-01-15T02:51:14;0.50;1.00
4727;DHT22;2377;51.734;8.950;2024-01-15T02:53:41;0.50;1.00
4727;DHT22;2377;51.734;8.950;2024-01-15T02:56:08;0.50;1.00
4727;DHT22;2377;51.734;8.950;2024-01-15T02:58:37;0.50;1.00
4727;DHT22;2377;51.734;8.950;2024-01-15T03:01:04;0.50;3.20
4727;DHT22;2377;51.734;8.950;2024-01-15T03:03:31;0.50;1.00
4727;DHT22;2377;51.734;8.950;2024-01-15T03:06:02;0.50;1.00
4727;DHT22;2377;51.734;8.950;2024-01-15T03:08:29;0.50;1.00
4727;DHT22;2377;51.734;8.950;2024-01-15T03:10:56;0.50;1.00
4727;DHT22;2377;51.734;8.950;2024-01-15T03:13:24;0.60;1.00
4727;DHT22;2377;51.734;8.950;2024-01-15T03:15:52;0.60;1.00
4727;DHT22;2377;51.734;8.950;2024-01-15T03:18:20;0.60;1.00
4727;DHT22;2377;51.734;8.950;2024-01-15T03:20:47;0.60;1.00
4727;DHT22;2377;51.734;8.950;2024-01-15T03:23:14;0.60;1.00
4727;DHT22;2377;51.734;8.950;2024-01-15T03:25:41;0.60;1.00
4727;DHT22;2377;51.734;8.950;2024-01-15T03:28:08;0.50;1.00
4727;DHT22;2377;51.734;8.950;2024-01-15T03:30:35;0.50;1.00
4727;DHT22;2377;51.734;8.950;2024-01-15T03:33:06;0.60;1.00
4727;DHT22;2377;51.734;8.950;2024-01-15T03:35:33;0.60;1.00
4727;DHT22;2377;51.734;8.950;2024-01-15T03:38:00;0.60;1.00
4727;DHT22;2377;51.734;8.950;2024-01-15T03:40:28;0.60;1.00
4727;DHT22;2377;51.734;8.950;2024-01-15T03:42:55;0.60;1.00
4727;DHT22;2377;51.734;8.950;2024-01-15T03:45:22;0.60;1.00
4727;DHT22;2377;51.734;8.950;2024-01-15T03:47:49;0.60;1.00
4727;DHT22;2377;51.734;8.950;2024-01-15T03:50:17;0.50;1.00
4727;DHT22;2377;51.734;8.950;2024-01-15T03:52:44;0.50;1.00
4727;DHT22;2377;51.734;8.950;2024-01-15T03:55:11;0.50;2.20
4727;DHT22;2377;51.734;8.950;2024-01-15T03:57:38;0.50;1.00
4727;DHT22;2377;51.734;8.950;2024-01-15T04:00:07;0.50;1.00
4727;DHT22;2377;51.734;8.950;2024-01-15T04:02:35;0.50;1.00
4727;DHT22;2377;51.734;8.950;2024-01-15T04:05:02;0.50;1.00
4727;DHT22;2377;51.734;8.950;2024-01-15T04:07:31;0.50;1.00
4727;DHT22;2377;51.734;8.950;2024-01-15T04:09:58;0.50;1.00
4727;DHT22;2377;51.734;8.950;2024-01-15T04:12:25;0.60;1.00
4727;DHT22;2377;51.734;8.950;2024-01-15T04:14:53;0.50;1.00
4727;DHT22;2377;51.734;8.950;2024-01-15T04:17:20;0.50;1.00
4727;DHT22;2377;51.734;8.950;2024-01-15T04:19:47;0.60;1.00
4727;DHT22;2377;51.734;8.950;2024-01-15T04:22:14;0.60;1.00
4727;DHT22;2377;51.734;8.950;2024-01-15T04:24:43;0.60;1.00
4727;DHT22;2377;51.734;8.950;2024-01-15T04:27:10;0.60;1.00
4727;DHT22;2377;51.734;8.950;2024-01-15T04:29:37;0.60;1.00
4727;DHT22;2377;51.734;8.950;2024-01-15T04:32:05;0.60;1.00
4727;DHT22;2377;51.734;8.950;2024-01-15T04:34:32;0.50;1.00
4727;DHT22;2377;51.734;8.950;2024-01-15T04:37:00;0.60;1.00
4727;DHT22;2377;51.734;8.950;2024-01-15T04:39:27;0.60;1.00
4727;DHT22;2377;51.734;8.950;2024-01-15T04:41:58;0.60;1.00
4727;DHT22;2377;51.734;8.950;2024-01-15T04:44:25;0.60;1.00
4727;DHT22;2377;51.734;8.950;2024-01-15T04:46:52;0.50;1.00
4727;DHT22;2377;51.734;8.950;2024-01-15T04:49:19;0.50;1.00
4727;DHT22;2377;51.734;8.950;2024-01-15T04:51:46;0.60;1.00
4727;DHT22;2377;51.734;8.950;2024-01-15T04:54:13;0.50;1.00
4727;DHT22;2377;51.734;8.950;2024-01-15T04:56:43;0.60;1.00
4727;DHT22;2377;51.734;8.950;2024-01-15T04:59:12;0.60;1.00
4727;DHT22;2377;51.734;8.950;2024-01-15T05:01:40;0.60;1.00
4727;DHT22;2377;51.734;8.950;2024-01-15T05:04:07;0.60;1.00
4727;DHT22;2377;51.734;8.950;2024-01-15T05:06:34;0.60;1.00
4727;DHT22;2377;51.734;8.950;2024-01-15T05:09:01;0.60;1.00
4727;DHT22;2377;51.734;8.950;2024-01-15T05:11:30;0.50;4.80
4727;DHT22;2377;51.734;8.950;2024-01-15T05:14:00;0.60;1.60
4727;DHT22;2377;51.734;8.950;2024-01-15T05:16:28;0.60;1.00
4727;DHT22;2377;51.734;8.950;2024-01-15T05:18:55;0.60;1.00
4727;DHT22;2377;51.734;8.950;2024-01-15T05:21:23;0.60;1.00
4727;DHT22;2377;51.734;8.950;2024-01-15T05:23:50;0.60;1.80
4727;DHT22;2377;51.734;8.950;2024-01-15T05:26:17;0.50;7.00
4727;DHT22;2377;51.734;8.950;2024-01-15T05:28:44;0.60;1.00
4727;DHT22;2377;51.734;8.950;2024-01-15T05:31:11;0.60;1.00
4727;DHT22;2377;51.734;8.950;2024-01-15T05:33:42;0.60;1.10
4727;DHT22;2377;51.734;8.950;2024-01-15T05:36:09;0.50;1.00
4727;DHT22;2377;51.734;8.950;2024-01-15T05:38:36;0.60;1.00
4727;DHT22;2377;51.734;8.950;2024-01-15T05:41:05;0.50;1.50
4727;DHT22;2377;51.734;8.950;2024-01-15T05:43:32;0.50;2.30
4727;DHT22;2377;51.734;8.950;2024-01-15T05:45:59;0.50;1.00
4727;DHT22;2377;51.734;8.950;2024-01-15T05:48:27;0.50;3.00
4727;DHT22;2377;51.734;8.950;2024-01-15T05:50:55;0.50;1.00
4727;DHT22;2377;51.734;8.950;2024-01-15T05:53:22;0.50;9.50
4727;DHT22;2377;51.734;8.950;2024-01-15T05:55:49;0.50;55.50
4727;DHT22;2377;51.734;8.950;2024-01-15T05:58:16;0.50;39.40
4727;DHT22;2377;51.734;8.950;2024-01-15T06:00:43;0.50;35.50
4727;DHT22;2377;51.734;8.950;2024-01-15T06:03:11;0.50;40.30
4727;DHT22;2377;51.734;8.950;2024-01-15T06:05:38;0.50;37.90
4727;DHT22;2377;51.734;8.950;2024-01-15T06:08:07;0.50;63.60
4727;DHT22;2377;51.734;8.950;2024-01-15T06:10:34;0.50;51.20
4727;DHT22;2377;51.734;8.950;2024-01-15T06:13:01;0.50;28.50
4727;DHT22;2377;51.734;8.950;2024-01-15T06:15:29;0.60;30.60
4727;DHT22;2377;51.734;8.950;2024-01-15T06:17:56;0.50;34.70
4727;DHT22;2377;51.734;8.950;2024-01-15T06:20:23;0.50;38.90
4727;DHT22;2377;51.734;8.950;2024-01-15T06:22:50;0.60;29.80
4727;DHT22;2377;51.734;8.950;2024-01-15T06:25:19;0.50;33.30
4727;DHT22;2377;51.734;8.950;2024-01-15T06:27:46;0.50;41.00
4727;DHT22;2377;51.734;8.950;2024-01-15T06:30:14;0.50;60.50
4727;DHT22;2377;51.734;8.950;2024-01-15T06:32:41;0.50;41.00
4727;DHT22;2377;51.734;8.950;2024-01-15T06:35:08;0.50;54.40
4727;DHT22;2377;51.734;8.950;2024-01-15T06:37:37;0.50;54.00
4727;DHT22;2377;51.734;8.950;2024-01-15T06:40:05;0.50;44.00
4727;DHT22;2377;51.734;8.950;2024-01-15T06:42:34;0.60;40.80
4727;DHT22;2377;51.734;8.950;2024-01-15T06:45:02;0.50;37.80
4727;DHT22;2377;51.734;8.950;2024-01-15T06:47:30;0.50;57.10
4727;DHT22;2377;51.734;8.950;2024-01-15T06:49:58;0.50;64.30
4727;DHT22;2377;51.734;8.950;2024-01-15T06:52:25;0.50;35.70
4727;DHT22;2377;51.734;8.950;2024-01-15T06:54:52;0.50;50.30
4727;DHT22;2377;51.734;8.950;2024-01-15T06:57:19;0.60;43.90
4727;DHT22;2377;51.734;8.950;2024-01-15T06:59:48;0.50;54.90
4727;DHT22;2377;51.734;8.950;2024-01-15T07:02:15;0.60;32.20
4727;DHT22;2377;51.734;8.950;2024-01-15T07:04:42;0.60;33.10
4727;DHT22;2377;51.734;8.950;2024-01-15T07:07:09;0.50;33.80
4727;DHT22;2377;51.734;8.950;2024-01-15T07:09:36;0.50;45.10
4727;DHT22;2377;51.734;8.950;2024-01-15T07:12:04;0.50;40.80
4727;DHT22;2377;51.734;8.950;2024-01-15T07:14:33;0.60;30.60
4727;DHT22;2377;51.734;8.950;2024-01-15T07:17:02;0.60;30.00
4727;DHT22;2377;51.734;8.950;2024-01-15T07:19:29;0.50;52.90
4727;DHT22;2377;51.734;8.950;2024-01-15T07:21:56;0.50;64.80
4727;DHT22;2377;51.734;8.950;2024-01-15T07:24:23;0.50;57.70
4727;DHT22;2377;51.734;8.950;2024-01-15T07:26:51;0.60;54.20
4727;DHT22;2377;51.734;8.950;2024-01-15T07:29:18;0.60;94.50
4727;DHT22;2377;51.734;8.950;2024-01-15T07:31:48;0.50;99.90
4727;DHT22;2377;51.734;8.950;2024-01-15T07:34:17;0.50;99.90
4727;DHT22;2377;51.734;8.950;2024-01-15T07:36:45;0.50;82.70
4727;DHT22;2377;51.734;8.950;2024-01-15T07:39:12;0.50;44.60
4727;DHT22;2377;51.734;8.950;2024-01-15T07:41:39;0.60;48.90
4727;DHT22;2377;51.734;8.950;2024-01-15T07:44:06;0.60;62.90
4727;DHT22;2377;51.734;8.950;2024-01-15T07:46:33;0.60;46.10
4727;DHT22;2377;51.734;8.950;2024-01-15T07:49:00;0.60;65.50
4727;DHT22;2377;51.734;8.950;2024-01-15T07:51:29;0.60;64.40
4727;DHT22;2377;51.734;8.950;2024-01-15T07:53:56;0.60;62.30
4727;DHT22;2377;51.734;8.950;2024-01-15T07:56:23;0.60;59.20
4727;DHT22;2377;51.734;8.950;2024-01-15T07:58:53;0.60;48.80
4727;DHT22;2377;51.734;8.950;2024-01-15T08:01:20;0.70;51.70
4727;DHT22;2377;51.734;8.950;2024-01-15T08:03:47;0.70;23.50
4727;DHT22;2377;51.734;8.950;2024-01-15T08:06:17;0.80;22.00
4727;DHT22;2377;51.734;8.950;2024-01-15T08:08:46;0.80;25.10
4727;DHT22;2377;51.734;8.950;2024-01-15T08:11:13;0.70;28.50
4727;DHT22;2377;51.734;8.950;2024-01-15T08:13:40;0.70;30.90
4727;DHT22;2377;51.734;8.950;2024-01-15T08:16:08;0.70;26.90
4727;DHT22;2377;51.734;8.950;2024-01-15T08:18:35;0.70;37.60
4727;DHT22;2377;51.734;8.950;2024-01-15T08:21:02;0.70;22.50
4727;DHT22;2377;51.734;8.950;2024-01-15T08:23:29;0.80;33.40
4727;DHT22;2377;51.734;8.950;2024-01-15T08:25:58;0.70;37.30
4727;DHT22;2377;51.734;8.950;2024-01-15T08:28:25;0.60;55.00
4727;DHT22;2377;51.734;8.950;2024-01-15T08:30:52;0.60;45.60
4727;DHT22;2377;51.734;8.950;2024-01-15T08:33:19;0.60;37.90
4727;DHT22;2377;51.734;8.950;2024-01-15T08:35:46;0.70;45.70
4727;DHT22;2377;51.734;8.950;2024-01-15T08:38:13;0.60;51.80
4727;DHT22;2377;51.734;8.950;2024-01-15T08:40:40;0.70;46.00
4727;DHT22;2377;51.734;8.950;2024-01-15T08:43:09;0.70;44.50
4727;DHT22;2377;51.734;8.950;2024-01-15T08:45:36;0.70;83.00
4727;DHT22;2377;51.734;8.950;2024-01-15T08:48:03;0.70;99.90
4727;DHT22;2377;51.734;8.950;2024-01-15T08:50:31;0.80;99.90
4727;DHT22;2377;51.734;8.950;2024-01-15T08:52:59;0.80;99.90
4727;DHT22;2377;51.734;8.950;2024-01-15T08:55:26;0.80;80.10
4727;DHT22;2377;51.734;8.950;2024-01-15T08:57:53;0.80;93.50
4727;DHT22;2377;51.734;8.950;2024-01-15T09:00:22;0.80;73.40
4727;DHT22;2377;51.734;8.950;2024-01-15T09:02:49;0.80;35.80
4727;DHT22;2377;51.734;8.950;2024-01-15T09:05:16;0.80;35.90
4727;DHT22;2377;51.734;8.950;2024-01-15T09:07:43;0.80;40.90
4727;DHT22;2377;51.734;8.950;2024-01-15T09:10:11;0.80;21.40
4727;DHT22;2377;51.734;8.950;2024-01-15T09:12:38;0.80;17.60
4727;DHT22;2377;51.734;8.950;2024-01-15T09:15:06;0.90;19.40
4727;DHT22;2377;51.734;8.950;2024-01-15T09:17:35;0.80;15.40
4727;DHT22;2377;51.734;8.950;2024-01-15T09:20:02;0.80;28.30
4727;DHT22;2377;51.734;8.950;2024-01-15T09:22:31;0.80;31.90
4727;DHT22;2377;51.734;8.950;2024-01-15T09:24:58;0.80;54.10
4727;DHT22;2377;51.734;8.950;2024-01-15T09:27:26;0.80;46.90
4727;DHT22;2377;51.734;8.950;2024-01-15T09:29:53;0.70;69.60
4727;DHT22;2377;51.734;8.950;2024-01-15T09:32:21;0.60;70.70
4727;DHT22;2377;51.734;8.950;2024-01-15T09:34:49;0.60;72.30
4727;DHT22;2377;51.734;8.950;2024-01-15T09:37:16;0.70;68.80
4727;DHT22;2377;51.734;8.950;2024-01-15T09:39:43;0.80;76.40
4727;DHT22;2377;51.734;8.950;2024-01-15T09:42:11;0.80;45.30
4727;DHT22;2377;51.734;8.950;2024-01-15T09:44:38;0.80;38.70
4727;DHT22;2377;51.734;8.950;2024-01-15T09:47:06;0.80;29.70
4727;DHT22;2377;51.734;8.950;2024-01-15T09:49:33;0.80;40.10
4727;DHT22;2377;51.734;8.950;2024-01-15T09:52:02;0.80;54.80
4727;DHT22;2377;51.734;8.950;2024-01-15T09:54:30;0.80;67.00
4727;DHT22;2377;51.734;8.950;2024-01-15T09:56:59;0.80;61.30
4727;DHT22;2377;51.734;8.950;2024-01-15T09:59:28;0.80;65.20
4727;DHT22;2377;51.734;8.950;2024-01-15T10:01:57;0.80;43.60
4727;DHT22;2377;51.734;8.950;2024-01-15T10:04:27;0.80;27.70
4727;DHT22;2377;51.734;8.950;2024-01-15T10:06:55;0.90;20.70
4727;DHT22;2377;51.734;8.950;2024-01-15T10:09:26;0.90;21.80
4727;DHT22;2377;51.734;8.950;2024-01-15T10:11:54;0.90;27.00
4727;DHT22;2377;51.734;8.950;2024-01-15T10:14:21;0.80;17.00
4727;DHT22;2377;51.734;8.950;2024-01-15T10:16:48;0.90;12.80
4727;DHT22;2377;51.734;8.950;2024-01-15T10:19:15;0.90;1.00
4727;DHT22;2377;51.734;8.950;2024-01-15T10:21:42;1.00;1.00
4727;DHT22;2377;51.734;8.950;2024-01-15T10:24:09;1.00;8.30
4727;DHT22;2377;51.734;8.950;2024-01-15T10:26:37;0.90;12.00
4727;DHT22;2377;51.734;8.950;2024-01-15T10:29:04;0.80;21.30
4727;DHT22;2377;51.734;8.950;2024-01-15T10:31:31;0.70;25.90
4727;DHT22;2377;51.734;8.950;2024-01-15T10:34:10;0.80;17.90
4727;DHT22;2377;51.734;8.950;2024-01-15T10:36:41;0.80;13.60
4727;DHT22;2377;51.734;8.950;2024-01-15T10:39:08;0.80;21.20
4727;DHT22;2377;51.734;8.950;2024-01-15T10:41:36;0.80;9.40
4727;DHT22;2377;51.734;8.950;2024-01-15T10:44:04;0.80;1.00
4727;DHT22;2377;51.734;8.950;2024-01-15T10:46:31;0.80;1.00
4727;DHT22;2377;51.734;8.950;2024-01-15T10:49:00;0.80;1.00
4727;DHT22;2377;51.734;8.950;2024-01-15T10:51:29;0.90;1.00
4727;DHT22;2377;51.734;8.950;2024-01-15T10:53:56;0.80;1.00
4727;DHT22;2377;51.734;8.950;2024-01-15T10:56:25;0.70;6.30
4727;DHT22;2377;51.734;8.950;2024-01-15T10:58:56;0.70;12.10
4727;DHT22;2377;51.734;8.950;2024-01-15T11:01:26;0.80;8.00
4727;DHT22;2377;51.734;8.950;2024-01-15T11:03:55;0.80;2.70
4727;DHT22;2377;51.734;8.950;2024-01-15T11:06:24;0.80;13.30
4727;DHT22;2377;51.734;8.950;2024-01-15T11:08:52;0.80;8.60
4727;DHT22;2377;51.734;8.950;2024-01-15T11:11:21;0.80;1.00
4727;DHT22;2377;51.734;8.950;2024-01-15T11:13:49;0.90;1.00
4727;DHT22;2377;51.734;8.950;2024-01-15T11:16:18;0.90;1.00
4727;DHT22;2377;51.734;8.950;2024-01-15T11:19:01;0.90;1.00
4727;DHT22;2377;51.734;8.950;2024-01-15T11:21:31;0.80;1.00
4727;DHT22;2377;51.734;8.950;2024-01-15T11:24:02;0.90;1.00
4727;DHT22;2377;51.734;8.950;2024-01-15T11:26:35;0.90;1.00
4727;DHT22;2377;51.734;8.950;2024-01-15T11:29:04;1.00;1.00
4727;DHT22;2377;51.734;8.950;2024-01-15T11:31:59;1.00;1.00
4727;DHT22;2377;51.734;8.950;2024-01-15T11:34:58;1.00;1.00
4727;DHT22;2377;51.734;8.950;2024-01-15T11:37:28;1.00;1.00
4727;DHT22;2377;51.734;8.950;2024-01-15T11:40:18;1.10;1.00
4727;DHT22;2377;51.734;8.950;2024-01-15T11:42:46;1.00;1.00
4727;DHT22;2377;51.734;8.950;2024-01-15T11:45:15;1.10;1.00
4727;DHT22;2377;51.734;8.950;2024-01-15T11:48:13;1.20;1.00
4727;DHT22;2377;51.734;8.950;2024-01-15T11:50:43;1.20;1.00
4727;DHT22;2377;51.734;8.950;2024-01-15T11:53:17;1.10;1.00
4727;DHT22;2377;51.734;8.950;2024-01-15T11:56:02;1.10;1.00
4727;DHT22;2377;51.734;8.950;2024-01-15T11:58:34;1.10;1.00
4727;DHT22;2377;51.734;8.950;2024-01-15T12:01:03;1.00;1.00
4727;DHT22;2377;51.734;8.950;2024-01-15T12:03:32;1.00;1.00
4727;DHT22;2377;51.734;8.950;2024-01-15T12:06:00;0.90;1.00
4727;DHT22;2377;51.734;8.950;2024-01-15T12:08:27;0.90;1.00
4727;DHT22;2377;51.734;8.950;2024-01-15T12:10:54;0.90;1.00
4727;DHT22;2377;51.734;8.950;2024-01-15T12:13:22;0.90;1.00
4727;DHT22;2377;51.734;8.950;2024-01-15T12:15:49;0.90;1.00
4727;DHT22;2377;51.734;8.950;2024-01-15T12:18:17;0.80;1.00
4727;DHT22;2377;51.734;8.950;2024-01-15T12:20:46;0.90;1.00
4727;DHT22;2377;51.734;8.950;2024-01-15T12:23:14;0.90;1.00
4727;DHT22;2377;51.734;8.950;2024-01-15T12:25:42;0.90;1.00
4727;DHT22;2377;51.734;8.950;2024-01-15T12:28:09;0.90;1.00
4727;DHT22;2377;51.734;8.950;2024-01-15T12:30:36;0.90;1.00
4727;DHT22;2377;51.734;8.950;2024-01-15T12:33:06;0.90;1.00
4727;DHT22;2377;51.734;8.950;2024-01-15T12:35:34;0.90;1.00
4727;DHT22;2377;51.734;8.950;2024-01-15T12:38:03;0.90;1.00
4727;DHT22;2377;51.734;8.950;2024-01-15T12:40:32;0.80;1.00
4727;DHT22;2377;51.734;8.950;2024-01-15T12:42:59;0.90;1.00
4727;DHT22;2377;51.734;8.950;2024-01-15T12:45:27;0.90;1.00
4727;DHT22;2377;51.734;8.950;2024-01-15T12:47:54;0.90;1.00
4727;DHT22;2377;51.734;8.950;2024-01-15T12:50:24;1.00;1.00
4727;DHT22;2377;51.734;8.950;2024-01-15T12:52:52;1.00;1.00
4727;DHT22;2377;51.734;8.950;2024-01-15T12:55:20;1.00;1.00
4727;DHT22;2377;51.734;8.950;2024-01-15T12:57:48;1.00;1.00
4727;DHT22;2377;51.734;8.950;2024-01-15T13:00:18;1.00;1.00
4727;DHT22;2377;51.734;8.950;2024-01-15T13:02:45;1.00;1.00
4727;DHT22;2377;51.734;8.950;2024-01-15T13:05:12;0.90;1.00
4727;DHT22;2377;51.734;8.950;2024-01-15T13:07:39;0.90;1.00
4727;DHT22;2377;51.734;8.950;2024-01-15T13:10:07;0.80;1.00
4727;DHT22;2377;51.734;8.950;2024-01-15T13:12:37;0.80;1.00
4727;DHT22;2377;51.734;8.950;2024-01-15T13:15:06;0.80;1.00
4727;DHT22;2377;51.734;8.950;2024-01-15T13:17:37;0.80;1.00
4727;DHT22;2377;51.734;8.950;2024-01-15T13:20:05;0.80;1.00
4727;DHT22;2377;51.734;8.950;2024-01-15T13:22:34;0.80;1.00
4727;DHT22;2377;51.734;8.950;2024-01-15T13:25:01;0.80;1.00
4727;DHT22;2377;51.734;8.950;2024-01-15T13:27:29;0.80;1.00
4727;DHT22;2377;51.734;8.950;2024-01-15T13:29:58;0.80;1.00
4727;DHT22;2377;51.734;8.950;2024-01-15T13:32:25;0.80;1.00
4727;DHT22;2377;51.734;8.950;2024-01-15T13:34:55;0.80;1.00
4727;DHT22;2377;51.734;8.950;2024-01-15T13:37:22;0.80;1.00
4727;DHT22;2377;51.734;8.950;2024-01-15T13:39:50;0.80;1.00
4727;DHT22;2377;51.734;8.950;2024-01-15T13:42:17;0.80;1.00
4727;DHT22;2377;51.734;8.950;2024-01-15T13:44:47;0.80;1.00
4727;DHT22;2377;51.734;8.950;2024-01-15T13:47:16;0.80;1.00
4727;DHT22;2377;51.734;8.950;2024-01-15T13:49:43;1.00;1.00
4727;DHT22;2377;51.734;8.950;2024-01-15T13:52:10;1.00;1.00
4727;DHT22;2377;51.734;8.950;2024-01-15T13:54:38;1.00;1.00
4727;DHT22;2377;51.734;8.950;2024-01-15T13:57:05;0.90;1.00
4727;DHT22;2377;51.734;8.950;2024-01-15T13:59:32;0.80;1.00
4727;DHT22;2377;51.734;8.950;2024-01-15T14:01:59;0.80;1.00
4727;DHT22;2377;51.734;8.950;2024-01-15T14:04:28;0.70;1.00
4727;DHT22;2377;51.734;8.950;2024-01-15T14:06:55;0.70;1.00
4727;DHT22;2377;51.734;8.950;2024-01-15T14:09:22;0.80;1.00
4727;DHT22;2377;51.734;8.950;2024-01-15T14:11:51;0.80;1.00
4727;DHT22;2377;51.734;8.950;2024-01-15T14:14:18;0.70;1.00
4727;DHT22;2377;51.734;8.950;2024-01-15T14:16:46;0.70;1.00
4727;DHT22;2377;51.734;8.950;2024-01-15T14:19:13;0.70;1.00
4727;DHT22;2377;51.734;8.950;2024-01-15T14:21:42;0.60;1.00
4727;DHT22;2377;51.734;8.950;2024-01-15T14:24:09;0.60;3.10
4727;DHT22;2377;51.734;8.950;2024-01-15T14:26:36;0.60;7.70
4727;DHT22;2377;51.734;8.950;2024-01-15T14:29:03;0.60;1.00
4727;DHT22;2377;51.734;8.950;2024-01-15T14:31:31;0.60;4.10
4727;DHT22;2377;51.734;8.950;2024-01-15T14:33:59;0.60;1.00
4727;DHT22;2377;51.734;8.950;2024-01-15T14:36:28;0.60;4.60
4727;DHT22;2377;51.734;8.950;2024-01-15T14:38:57;0.60;8.70
4727;DHT22;2377;51.734;8.950;2024-01-15T14:41:24;0.60;1.00
4727;DHT22;2377;51.734;8.950;2024-01-15T14:43:51;0.60;17.20
4727;DHT22;2377;51.734;8.950;2024-01-15T14:46:18;0.60;20.30
4727;DHT22;2377;51.734;8.950;2024-01-15T14:48:46;0.50;23.30
4727;DHT22;2377;51.734;8.950;2024-01-15T14:51:13;0.50;21.70
4727;DHT22;2377;51.734;8.950;2024-01-15T14:53:40;0.60;4.90
4727;DHT22;2377;51.734;8.950;2024-01-15T14:56:10;0.60;8.50
4727;DHT22;2377;51.734;8.950;2024-01-15T14:58:37;0.60;11.90
4727;DHT22;2377;51.734;8.950;2024-01-15T15:01:04;0.60;11.70
4727;DHT22;2377;51.734;8.950;2024-01-15T15:03:32;0.60;1.00
4727;DHT22;2377;51.734;8.950;2024-01-15T15:05:59;0.70;1.00
4727;DHT22;2377;51.734;8.950;2024-01-15T15:08:27;0.60;7.80
4727;DHT22;2377;51.734;8.950;2024-01-15T15:10:54;0.70;5.50
4727;DHT22;2377;51.734;8.950;2024-01-15T15:13:23;0.70;8.80
4727;DHT22;2377;51.734;8.950;2024-01-15T15:15:51;0.70;8.00
4727;DHT22;2377;51.734;8.950;2024-01-15T15:18:19;0.70;2.50
4727;DHT22;2377;51.734;8.950;2024-01-15T15:20:47;0.70;8.60
4727;DHT22;2377;51.734;8.950;2024-01-15T15:23:15;0.60;25.30
4727;DHT22;2377;51.734;8.950;2024-01-15T15:25:45;0.60;47.30
4727;DHT22;2377;51.734;8.950;2024-01-15T15:28:12;0.50;43.10
4727;DHT22;2377;51.734;8.950;2024-01-15T15:30:43;0.50;55.40
4727;DHT22;2377;51.734;8.950;2024-01-15T15:33:10;0.50;96.40
4727;DHT22;2377;51.734;8.950;2024-01-15T15:35:37;0.50;99.90
4727;DHT22;2377;51.734;8.950;2024-01-15T15:38:04;0.40;99.90
4727;DHT22;2377;51.734;8.950;2024-01-15T15:40:31;0.50;99.90
4727;DHT22;2377;51.734;8.950;2024-01-15T15:42:58;0.40;99.90
4727;DHT22;2377;51.734;8.950;2024-01-15T15:45:25;0.50;99.90
4727;DHT22;2377;51.734;8.950;2024-01-15T15:47:54;0.50;93.00
4727;DHT22;2377;51.734;8.950;2024-01-15T15:50:22;0.60;85.80
4727;DHT22;2377;51.734;8.950;2024-01-15T15:52:49;0.60;90.80
4727;DHT22;2377;51.734;8.950;2024-01-15T15:55:16;0.60;60.00
4727;DHT22;2377;51.734;8.950;2024-01-15T15:57:43;0.60;47.80
4727;DHT22;2377;51.734;8.950;2024-01-15T16:00:11;0.60;29.60
4727;DHT22;2377;51.734;8.950;2024-01-15T16:02:39;0.60;8.70
4727;DHT22;2377;51.734;8.950;2024-01-15T16:05:08;0.60;4.50
4727;DHT22;2377;51.734;8.950;2024-01-15T16:07:35;0.70;1.00
4727;DHT22;2377;51.734;8.950;2024-01-15T16:10:03;0.60;6.80
4727;DHT22;2377;51.734;8.950;2024-01-15T16:12:31;0.60;1.00
4727;DHT22;2377;51.734;8.950;2024-01-15T16:15:00;0.60;14.00
4727;DHT22;2377;51.734;8.950;2024-01-15T16:17:28;0.60;24.90
4727;DHT22;2377;51.734;8.950;2024-01-15T16:19:56;0.60;20.90
4727;DHT22;2377;51.734;8.950;2024-01-15T16:22:26;0.60;20.30
4727;DHT22;2377;51.734;8.950;2024-01-15T16:24:54;0.60;25.20
4727;DHT22;2377;51.734;8.950;2024-01-15T16:27:21;0.60;23.20
4727;DHT22;2377;51.734;8.950;2024-01-15T16:29:48;0.60;15.10
4727;DHT22;2377;51.734;8.950;2024-01-15T16:32:15;0.60;11.60